createdAt,value
2023-04-26T00:00:19.708Z,6.0290
2023-04-26T00:01:22.026Z,6.0562
2023-04-26T00:02:24.408Z,6.0877
2023-04-26T00:03:24.723Z,6.0641
2023-04-26T00:04:25.407Z,6.1107
2023-04-26T00:05:26.083Z,6.1389
2023-04-26T00:06:28.436Z,6.1386
2023-04-26T00:07:30.707Z,6.1064
2023-04-26T00:08:32.972Z,6.1113
2023-04-26T00:09:35.181Z,6.0903
2023-04-26T00:10:37.554Z,6.1249
2023-04-26T00:11:39.798Z,6.1199
2023-04-26T00:12:42.089Z,6.1588
2023-04-26T00:13:44.360Z,6.1868
2023-04-26T00:14:46.628Z,6.2206
2023-04-26T00:15:48.927Z,6.2174
2023-04-26T00:16:51.209Z,6.2190
2023-04-26T00:17:53.596Z,6.1900
2023-04-26T00:18:55.918Z,6.1464
2023-04-26T00:19:58.200Z,6.1577
2023-04-26T00:21:00.434Z,6.1095
2023-04-26T00:22:02.722Z,6.1394
2023-04-26T00:23:04.970Z,6.1964
2023-04-26T00:24:07.201Z,6.1631
2023-04-26T00:25:09.498Z,6.1877
2023-04-26T00:26:11.851Z,6.1668
2023-04-26T00:27:14.053Z,6.1237
2023-04-26T00:28:16.337Z,6.1123
2023-04-26T00:29:18.583Z,6.1646
2023-04-26T00:30:20.848Z,6.1209
2023-04-26T00:31:23.161Z,6.0932
2023-04-26T00:32:25.462Z,6.0887
2023-04-26T00:33:27.685Z,6.1770
2023-04-26T00:34:29.936Z,6.1636
2023-04-26T00:35:32.175Z,6.1725
2023-04-26T00:36:34.412Z,6.1614
2023-04-26T00:37:36.618Z,6.1813
2023-04-26T00:38:38.818Z,6.1150
2023-04-26T00:39:41.100Z,6.1290
2023-04-26T00:40:43.391Z,6.1729
2023-04-26T00:41:45.583Z,6.1970
2023-04-26T00:42:47.848Z,6.1825
2023-04-26T00:43:50.090Z,6.1750
2023-04-26T00:44:52.350Z,6.1839
2023-04-26T00:45:54.612Z,6.1856
2023-04-26T00:46:56.913Z,6.2043
2023-04-26T00:47:59.259Z,6.1562
2023-04-26T00:49:01.489Z,6.1299
2023-04-26T00:50:03.798Z,6.1833
2023-04-26T00:51:05.998Z,6.1915
2023-04-26T00:52:08.275Z,6.1948
2023-04-26T00:53:10.612Z,6.2555
2023-04-26T00:54:12.864Z,6.2587
2023-04-26T00:55:15.096Z,6.3090
2023-04-26T00:56:17.395Z,6.2906
2023-04-26T00:57:19.638Z,6.3364
2023-04-26T00:58:21.859Z,6.3361
2023-04-26T00:59:24.107Z,6.2842
2023-04-26T01:00:26.319Z,6.2402
2023-04-26T01:01:28.669Z,6.2150
2023-04-26T01:02:30.964Z,6.1871
2023-04-26T01:03:31.187Z,6.1538
2023-04-26T01:04:31.495Z,6.1547
2023-04-26T01:05:33.698Z,6.0869
2023-04-26T01:06:35.960Z,6.0823
2023-04-26T01:07:38.174Z,6.0716
2023-04-26T01:08:40.470Z,6.0829
2023-04-26T01:09:42.792Z,6.1464
2023-04-26T01:10:45.084Z,6.0910
2023-04-26T01:11:47.319Z,6.1032
2023-04-26T01:12:49.516Z,6.1226
2023-04-26T01:13:51.714Z,6.1590
2023-04-26T01:14:53.950Z,6.1335
2023-04-26T01:15:56.202Z,6.1536
2023-04-26T01:16:58.479Z,6.1560
2023-04-26T01:18:00.766Z,6.1303
2023-04-26T01:19:03.098Z,6.1131
2023-04-26T01:20:05.500Z,6.0648
2023-04-26T01:21:06.335Z,6.1199
2023-04-26T01:22:08.529Z,6.1247
2023-04-26T01:23:10.763Z,6.0989
2023-04-26T01:24:13.050Z,6.0738
2023-04-26T01:25:15.307Z,6.1097
2023-04-26T01:26:17.554Z,6.1020
2023-04-26T01:27:19.803Z,6.0384
2023-04-26T01:28:22.106Z,5.9988
2023-04-26T01:29:24.335Z,6.0132
2023-04-26T01:30:26.553Z,6.0207
2023-04-26T01:31:28.924Z,6.0150
2023-04-26T01:32:29.082Z,5.9624
2023-04-26T01:33:31.297Z,6.0276
2023-04-26T01:34:33.518Z,5.9838
2023-04-26T01:35:35.754Z,6.0029
2023-04-26T01:36:37.974Z,5.9716
2023-04-26T01:37:40.267Z,6.0068
2023-04-26T01:38:42.480Z,5.9285
2023-04-26T01:39:44.767Z,5.8908
2023-04-26T01:40:46.998Z,5.8659
2023-04-26T01:41:49.203Z,5.7812
2023-04-26T01:42:51.454Z,5.7566
2023-04-26T01:43:53.837Z,5.8213
2023-04-26T01:44:56.174Z,5.8010
2023-04-26T01:45:58.548Z,5.7596
2023-04-26T01:47:00.885Z,5.7533
2023-04-26T01:48:03.248Z,5.7960
2023-04-26T01:49:03.185Z,5.8531
2023-04-26T01:50:05.482Z,5.7652
2023-04-26T01:51:07.772Z,5.7954
2023-04-26T01:52:10.110Z,5.8132
2023-04-26T01:53:12.392Z,5.7601
2023-04-26T01:54:14.694Z,5.7827
2023-04-26T01:55:17.005Z,5.7477
2023-04-26T01:56:19.285Z,5.8157
2023-04-26T01:57:21.523Z,5.8228
2023-04-26T01:58:23.815Z,5.7879
2023-04-26T01:59:26.111Z,5.7215
2023-04-26T02:00:28.468Z,5.7227
2023-04-26T02:01:30.829Z,5.6032
2023-04-26T02:02:33.137Z,5.5964
2023-04-26T02:03:35.517Z,5.6396
2023-04-26T02:04:35.573Z,5.6095
2023-04-26T02:05:37.854Z,5.5535
2023-04-26T02:06:40.123Z,5.4630
2023-04-26T02:07:42.409Z,5.4286
2023-04-26T02:08:44.704Z,5.3701
2023-04-26T02:09:47.109Z,5.3034
2023-04-26T02:10:49.399Z,5.3333
2023-04-26T02:11:51.686Z,5.3748
2023-04-26T02:12:53.987Z,5.4179
2023-04-26T02:13:56.309Z,5.5038
2023-04-26T02:14:58.604Z,5.5238
2023-04-26T02:16:00.956Z,5.5173
2023-04-26T02:17:03.274Z,5.5712
2023-04-26T02:18:05.614Z,5.5958
2023-04-26T02:19:08.035Z,5.5948
2023-04-26T02:20:10.377Z,5.6500
2023-04-26T02:21:12.757Z,5.7225
2023-04-26T02:22:15.071Z,5.7655
2023-04-26T02:23:17.445Z,5.7192
2023-04-26T02:24:19.740Z,5.7579
2023-04-26T02:25:22.047Z,5.7619
2023-04-26T02:26:24.394Z,5.7104
2023-04-26T02:27:26.656Z,5.6587
2023-04-26T02:28:28.949Z,5.6853
2023-04-26T02:29:43.604Z,5.6554
2023-04-26T02:30:33.276Z,5.6126
2023-04-26T02:31:35.675Z,5.6301
2023-04-26T02:32:38.020Z,5.6644
2023-04-26T02:33:40.291Z,5.6964
2023-04-26T02:34:42.586Z,5.6726
2023-04-26T02:35:44.906Z,5.6948
2023-04-26T02:36:45.790Z,5.6608
2023-04-26T02:37:48.103Z,5.6833
2023-04-26T02:38:50.685Z,5.6802
2023-04-26T02:39:50.932Z,5.6284
2023-04-26T02:40:51.080Z,5.5998
2023-04-26T02:41:53.398Z,5.6099
2023-04-26T02:42:55.703Z,5.6289
2023-04-26T02:43:58.014Z,5.7232
2023-04-26T02:45:00.321Z,5.7289
2023-04-26T02:46:02.664Z,5.7033
2023-04-26T02:47:05.012Z,5.6975
2023-04-26T02:48:07.390Z,5.6918
2023-04-26T02:49:09.725Z,5.7573
2023-04-26T02:50:12.057Z,5.7130
2023-04-26T02:51:14.347Z,5.7180
2023-04-26T02:52:16.680Z,5.7389
2023-04-26T02:53:18.995Z,5.7133
2023-04-26T02:54:21.345Z,5.7515
2023-04-26T02:55:23.700Z,5.7493
2023-04-26T02:56:25.995Z,5.7235
2023-04-26T02:57:28.307Z,5.6738
2023-04-26T02:58:30.675Z,5.6670
2023-04-26T02:59:32.964Z,5.6080
2023-04-26T03:00:35.287Z,5.5965
2023-04-26T03:01:37.721Z,5.6388
2023-04-26T03:02:38.018Z,5.6293
2023-04-26T03:03:38.414Z,5.5873
2023-04-26T03:04:38.374Z,5.6078
2023-04-26T03:05:40.747Z,5.6292
2023-04-26T03:06:43.075Z,5.6884
2023-04-26T03:07:45.308Z,5.7066
2023-04-26T03:08:47.641Z,5.7125
2023-04-26T03:09:49.999Z,5.7102
2023-04-26T03:10:52.276Z,5.6960
2023-04-26T03:11:54.621Z,5.6774
2023-04-26T03:12:56.888Z,5.6996
2023-04-26T03:13:59.195Z,5.7378
2023-04-26T03:15:01.634Z,5.7700
2023-04-26T03:16:03.918Z,5.7367
2023-04-26T03:17:06.259Z,5.6777
2023-04-26T03:18:08.642Z,5.7275
2023-04-26T03:19:08.621Z,5.7105
2023-04-26T03:20:10.952Z,5.7214
2023-04-26T03:21:13.300Z,5.7088
2023-04-26T03:22:15.563Z,5.6835
2023-04-26T03:23:17.862Z,5.7022
2023-04-26T03:24:20.188Z,5.7077
2023-04-26T03:25:22.448Z,5.7008
2023-04-26T03:26:24.818Z,5.7150
2023-04-26T03:27:27.067Z,5.7247
2023-04-26T03:28:29.349Z,5.7103
2023-04-26T03:29:31.650Z,5.6839
2023-04-26T03:30:33.943Z,5.7373
2023-04-26T03:31:36.328Z,5.7422
2023-04-26T03:32:38.743Z,5.7093
2023-04-26T03:33:40.998Z,5.6741
2023-04-26T03:34:43.306Z,5.7428
2023-04-26T03:35:45.559Z,5.7861
2023-04-26T03:36:47.908Z,5.8171
2023-04-26T03:37:52.423Z,5.8017
2023-04-26T03:38:51.927Z,5.8439
2023-04-26T03:39:52.703Z,5.8651
2023-04-26T03:40:55.008Z,5.8560
2023-04-26T03:41:57.348Z,5.9133
2023-04-26T03:42:59.676Z,5.8810
2023-04-26T03:44:02.073Z,5.8047
2023-04-26T03:45:04.330Z,5.8101
2023-04-26T03:46:06.724Z,5.8232
2023-04-26T03:47:06.715Z,5.8029
2023-04-26T03:48:09.142Z,5.7965
2023-04-26T03:49:11.484Z,5.7843
2023-04-26T03:50:13.780Z,5.7480
2023-04-26T03:51:16.073Z,5.7423
2023-04-26T03:52:18.376Z,5.7035
2023-04-26T03:53:20.692Z,5.7059
2023-04-26T03:54:22.993Z,5.7163
2023-04-26T03:55:23.924Z,5.6492
2023-04-26T03:56:26.223Z,5.6159
2023-04-26T03:57:28.587Z,5.5950
2023-04-26T03:58:30.935Z,5.4957
2023-04-26T03:59:33.200Z,5.5138
2023-04-26T04:00:35.478Z,5.5196
2023-04-26T04:01:37.866Z,5.5420
2023-04-26T04:02:40.226Z,5.4657
2023-04-26T04:03:41.549Z,5.5539
2023-04-26T04:04:42.515Z,5.6176
2023-04-26T04:05:43.052Z,5.5584
2023-04-26T04:06:43.088Z,5.5293
2023-04-26T04:07:45.415Z,5.5805
2023-04-26T04:08:47.791Z,5.5385
2023-04-26T04:09:50.099Z,5.5348
2023-04-26T04:10:52.410Z,5.5649
2023-04-26T04:11:54.692Z,5.5258
2023-04-26T04:12:57.051Z,5.4396
2023-04-26T04:13:59.382Z,5.4685
2023-04-26T04:15:01.814Z,5.4560
2023-04-26T04:16:04.236Z,5.4643
2023-04-26T04:17:04.203Z,5.5087
2023-04-26T04:18:06.566Z,5.5086
2023-04-26T04:19:06.490Z,5.4925
2023-04-26T04:20:08.766Z,5.5039
2023-04-26T04:21:11.092Z,5.5449
2023-04-26T04:22:13.543Z,5.5386
2023-04-26T04:23:15.803Z,5.4994
2023-04-26T04:24:18.158Z,5.5950
2023-04-26T04:25:20.523Z,5.5191
2023-04-26T04:26:22.929Z,5.5196
2023-04-26T04:27:25.237Z,5.4926
2023-04-26T04:28:27.569Z,5.5108
2023-04-26T04:29:29.902Z,5.4953
2023-04-26T04:30:32.289Z,5.4662
2023-04-26T04:31:34.645Z,5.3799
2023-04-26T04:32:36.969Z,5.3645
2023-04-26T04:33:39.569Z,5.3890
2023-04-26T04:34:39.423Z,5.4484
2023-04-26T04:35:41.753Z,5.5200
2023-04-26T04:36:44.114Z,5.5753
2023-04-26T04:37:46.407Z,5.5221
2023-04-26T04:38:48.744Z,5.5516
2023-04-26T04:39:51.054Z,5.5751
2023-04-26T04:40:53.434Z,5.5691
2023-04-26T04:41:54.309Z,5.6260
2023-04-26T04:42:56.643Z,5.5826
2023-04-26T04:43:58.975Z,5.4374
2023-04-26T04:45:01.231Z,5.5225
2023-04-26T04:46:03.600Z,5.5133
2023-04-26T04:47:05.587Z,5.5747
2023-04-26T04:48:08.066Z,5.5892
2023-04-26T04:49:08.023Z,5.6320
2023-04-26T04:50:10.361Z,5.5595
2023-04-26T04:51:12.679Z,5.6084
2023-04-26T04:52:16.304Z,5.7036
2023-04-26T04:53:16.564Z,5.6986
2023-04-26T04:54:18.863Z,5.6580
2023-04-26T04:55:21.143Z,5.7072
2023-04-26T04:56:23.424Z,5.7413
2023-04-26T04:57:25.744Z,5.7444
2023-04-26T04:58:28.115Z,5.7647
2023-04-26T04:59:30.399Z,5.7440
2023-04-26T05:00:32.766Z,5.7605
2023-04-26T05:01:35.120Z,5.8494
2023-04-26T05:02:37.647Z,5.8866
2023-04-26T05:03:38.027Z,5.7662
2023-04-26T05:04:38.590Z,5.8385
2023-04-26T05:05:39.169Z,5.8351
2023-04-26T05:06:41.476Z,5.8388
2023-04-26T05:07:43.797Z,5.9344
2023-04-26T05:08:46.170Z,5.9076
2023-04-26T05:09:48.430Z,5.8372
2023-04-26T05:10:50.666Z,5.8612
2023-04-26T05:11:53.064Z,5.8924
2023-04-26T05:12:55.493Z,5.8795
2023-04-26T05:13:55.654Z,5.7812
2023-04-26T05:14:56.180Z,5.7851
2023-04-26T05:15:58.579Z,5.7851
2023-04-26T05:17:00.830Z,5.8535
2023-04-26T05:18:03.144Z,5.8696
2023-04-26T05:19:08.043Z,5.8979
2023-04-26T05:20:07.116Z,5.9516
2023-04-26T05:21:09.375Z,5.9249
2023-04-26T05:22:11.644Z,5.9570
2023-04-26T05:23:13.963Z,5.9689
2023-04-26T05:24:16.260Z,5.8991
2023-04-26T05:25:20.229Z,5.9074
2023-04-26T05:26:19.999Z,5.8448
2023-04-26T05:27:22.308Z,5.9219
2023-04-26T05:28:24.555Z,5.9133
2023-04-26T05:29:26.796Z,5.9137
2023-04-26T05:30:29.195Z,6.0280
2023-04-26T05:31:29.259Z,6.0016
2023-04-26T05:32:31.576Z,6.0043
2023-04-26T05:33:33.861Z,5.9084
2023-04-26T05:34:36.180Z,5.9140
2023-04-26T05:35:38.438Z,5.9904
2023-04-26T05:36:40.755Z,6.0114
2023-04-26T05:37:43.026Z,5.8980
2023-04-26T05:38:45.315Z,5.8170
2023-04-26T05:39:47.616Z,5.7306
2023-04-26T05:40:49.877Z,5.7854
2023-04-26T05:41:52.192Z,5.7543
2023-04-26T05:42:54.467Z,5.6880
2023-04-26T05:43:56.729Z,5.7656
2023-04-26T05:44:57.587Z,5.7967
2023-04-26T05:45:59.890Z,5.7791
2023-04-26T05:47:00.845Z,5.7904
2023-04-26T05:48:03.188Z,5.7622
2023-04-26T05:49:05.528Z,5.6735
2023-04-26T05:50:07.775Z,5.7651
2023-04-26T05:51:10.066Z,5.7951
2023-04-26T05:52:12.333Z,5.8767
2023-04-26T05:53:14.663Z,5.9434
2023-04-26T05:54:16.969Z,5.9351
2023-04-26T05:55:19.357Z,5.8430
2023-04-26T05:56:21.658Z,5.7910
2023-04-26T05:57:23.991Z,5.7029
2023-04-26T05:58:26.320Z,5.8245
2023-04-26T05:59:28.538Z,5.8785
2023-04-26T06:00:30.794Z,5.8718
2023-04-26T06:01:33.065Z,5.9140
2023-04-26T06:02:35.430Z,5.9724
2023-04-26T06:03:35.746Z,5.9218
2023-04-26T06:04:36.540Z,5.9390
2023-04-26T06:05:36.794Z,5.8441
2023-04-26T06:06:39.054Z,5.6408
2023-04-26T06:07:41.277Z,5.7348
2023-04-26T06:08:43.599Z,5.8270
2023-04-26T06:09:45.870Z,5.8806
2023-04-26T06:10:48.106Z,5.8400
2023-04-26T06:11:50.417Z,5.8498
2023-04-26T06:12:52.706Z,5.7872
2023-04-26T06:13:55.196Z,5.8856
2023-04-26T06:14:55.237Z,6.0296
2023-04-26T06:15:57.565Z,6.1215
2023-04-26T06:16:59.917Z,6.2022
2023-04-26T06:18:02.218Z,6.0684
2023-04-26T06:19:04.495Z,6.0168
2023-04-26T06:20:06.707Z,6.1546
2023-04-26T06:21:09.023Z,6.2146
2023-04-26T06:22:11.220Z,6.2242
2023-04-26T06:23:13.555Z,6.2400
2023-04-26T06:24:15.830Z,6.3341
2023-04-26T06:25:18.121Z,6.3546
2023-04-26T06:26:20.470Z,6.1999
2023-04-26T06:27:22.692Z,6.1550
2023-04-26T06:28:24.967Z,5.9926
2023-04-26T06:29:27.222Z,6.0583
2023-04-26T06:30:29.548Z,6.1316
2023-04-26T06:31:31.882Z,6.1325
2023-04-26T06:32:32.420Z,6.1071
2023-04-26T06:33:34.791Z,6.2444
2023-04-26T06:34:37.035Z,6.3583
2023-04-26T06:35:39.374Z,6.4358
2023-04-26T06:36:41.625Z,6.3655
2023-04-26T06:37:44.066Z,6.2566
2023-04-26T06:38:43.865Z,6.2079
2023-04-26T06:39:46.081Z,6.2004
2023-04-26T06:40:48.365Z,6.2449
2023-04-26T06:41:52.497Z,6.3370
2023-04-26T06:42:52.596Z,6.2889
2023-04-26T06:43:55.272Z,6.2807
2023-04-26T06:44:55.303Z,6.3975
2023-04-26T06:45:57.645Z,6.4529
2023-04-26T06:46:59.985Z,6.3006
2023-04-26T06:48:02.334Z,6.4540
2023-04-26T06:49:04.703Z,6.4760
2023-04-26T06:50:04.639Z,6.4542
2023-04-26T06:51:06.924Z,6.3677
2023-04-26T06:52:09.593Z,6.1816
2023-04-26T06:53:09.646Z,6.2221
2023-04-26T06:54:11.987Z,6.1976
2023-04-26T06:55:14.424Z,6.3749
2023-04-26T06:56:14.254Z,6.5683
2023-04-26T06:57:14.499Z,6.4982
2023-04-26T06:58:16.838Z,6.5662
2023-04-26T06:59:19.158Z,6.6011
2023-04-26T07:00:21.484Z,6.4950
2023-04-26T07:01:23.851Z,6.3745
2023-04-26T07:02:26.313Z,6.3758
2023-04-26T07:03:26.623Z,6.5528
2023-04-26T07:04:27.085Z,6.6497
2023-04-26T07:05:27.704Z,6.7166
2023-04-26T07:06:30.041Z,6.6016
2023-04-26T07:07:32.300Z,6.7249
2023-04-26T07:08:34.604Z,6.8176
2023-04-26T07:09:36.928Z,6.8848
2023-04-26T07:10:39.220Z,6.7586
2023-04-26T07:11:41.509Z,6.8929
2023-04-26T07:12:43.794Z,6.9572
2023-04-26T07:13:46.127Z,6.9482
2023-04-26T07:14:48.400Z,6.7881
2023-04-26T07:15:50.726Z,6.5818
2023-04-26T07:16:53.008Z,6.4599
2023-04-26T07:17:55.322Z,6.3965
2023-04-26T07:18:57.656Z,6.4946
2023-04-26T07:19:59.966Z,6.3515
2023-04-26T07:20:59.916Z,6.4471
2023-04-26T07:22:00.774Z,6.3402
2023-04-26T07:23:00.882Z,6.3855
2023-04-26T07:24:01.018Z,6.4392
2023-04-26T07:25:03.336Z,6.4303
2023-04-26T07:26:05.690Z,6.5406
2023-04-26T07:27:05.687Z,6.6289
2023-04-26T07:28:07.978Z,6.6719
2023-04-26T07:29:10.238Z,6.6274
2023-04-26T07:30:12.512Z,6.7772
2023-04-26T07:31:14.819Z,6.8899
2023-04-26T07:32:17.159Z,6.9832
2023-04-26T07:33:19.539Z,7.1155
2023-04-26T07:34:19.782Z,6.9705
2023-04-26T07:35:22.078Z,7.0232
2023-04-26T07:36:25.226Z,7.1496
2023-04-26T07:37:25.328Z,7.2330
2023-04-26T07:38:27.560Z,7.1293
2023-04-26T07:39:27.571Z,7.1031
2023-04-26T07:40:27.531Z,7.2877
2023-04-26T07:41:27.509Z,7.3195
2023-04-26T07:42:29.778Z,7.2857
2023-04-26T07:43:32.350Z,7.2402
2023-04-26T07:44:32.190Z,7.3339
2023-04-26T07:45:34.577Z,7.4880
2023-04-26T07:46:36.834Z,7.2605
2023-04-26T07:47:39.132Z,7.2291
2023-04-26T07:48:41.473Z,7.4912
2023-04-26T07:49:45.722Z,7.4891
2023-04-26T07:50:45.197Z,7.1637
2023-04-26T07:51:47.511Z,7.0302
2023-04-26T07:52:49.826Z,7.1709
2023-04-26T07:53:52.258Z,6.8654
2023-04-26T07:54:52.769Z,6.9371
2023-04-26T07:55:55.068Z,7.1040
2023-04-26T07:56:57.422Z,7.1827
2023-04-26T07:57:59.701Z,7.0594
2023-04-26T07:59:02.187Z,7.3183
2023-04-26T08:00:01.988Z,7.6850
2023-04-26T08:01:04.306Z,7.9298
2023-04-26T08:02:06.805Z,8.0453
2023-04-26T08:03:06.786Z,8.1288
2023-04-26T08:04:07.313Z,8.1903
2023-04-26T08:05:07.966Z,7.9679
2023-04-26T08:06:08.140Z,7.5384
2023-04-26T08:07:07.996Z,7.3147
2023-04-26T08:08:10.322Z,7.4611
2023-04-26T08:09:12.639Z,7.4580
2023-04-26T08:10:14.949Z,7.4695
2023-04-26T08:11:17.239Z,7.5148
2023-04-26T08:12:19.509Z,7.3804
2023-04-26T08:13:21.825Z,7.2744
2023-04-26T08:14:24.133Z,7.2636
2023-04-26T08:15:26.475Z,7.2638
2023-04-26T08:16:28.775Z,7.4658
2023-04-26T08:17:31.085Z,7.6509
2023-04-26T08:18:33.430Z,7.8767
2023-04-26T08:19:35.730Z,8.0378
2023-04-26T08:20:37.189Z,8.1227
2023-04-26T08:21:40.966Z,8.1376
2023-04-26T08:22:44.766Z,8.0701
2023-04-26T08:23:45.317Z,8.2111
2023-04-26T08:24:47.594Z,7.8056
2023-04-26T08:25:49.905Z,7.7950
2023-04-26T08:26:52.198Z,7.7177
2023-04-26T08:27:54.475Z,7.8828
2023-04-26T08:28:56.846Z,8.0476
2023-04-26T08:29:59.318Z,8.0994
2023-04-26T08:30:59.175Z,8.2195
2023-04-26T08:32:01.472Z,8.3901
2023-04-26T08:33:03.964Z,8.4334
2023-04-26T08:34:03.886Z,8.2784
2023-04-26T08:35:06.227Z,8.1790
2023-04-26T08:36:08.495Z,8.1219
2023-04-26T08:37:10.775Z,8.0677
2023-04-26T08:38:13.099Z,7.9063
2023-04-26T08:39:15.362Z,8.0903
2023-04-26T08:40:17.680Z,8.2276
2023-04-26T08:41:19.999Z,8.2242
2023-04-26T08:42:22.331Z,8.2482
2023-04-26T08:43:24.625Z,8.3427
2023-04-26T08:44:27.045Z,8.4632
2023-04-26T08:45:28.002Z,8.4254
2023-04-26T08:46:30.339Z,8.2775
2023-04-26T08:47:30.270Z,8.5262
2023-04-26T08:48:32.556Z,8.5630
2023-04-26T08:49:34.853Z,8.5993
2023-04-26T08:50:37.175Z,8.5539
2023-04-26T08:51:39.533Z,8.6495
2023-04-26T08:52:41.851Z,8.7202
2023-04-26T08:53:44.148Z,8.6893
2023-04-26T08:54:46.495Z,8.9404
2023-04-26T08:55:48.794Z,8.9528
2023-04-26T08:56:51.069Z,9.0070
2023-04-26T08:57:53.407Z,8.9019
2023-04-26T08:58:55.660Z,8.7180
2023-04-26T08:59:58.000Z,8.7250
2023-04-26T09:01:00.382Z,8.5008
2023-04-26T09:02:02.779Z,8.3052
2023-04-26T09:03:03.110Z,8.4675
2023-04-26T09:04:03.404Z,8.2953
2023-04-26T09:05:04.911Z,8.4836
2023-04-26T09:06:05.210Z,8.3409
2023-04-26T09:07:07.522Z,8.3841
2023-04-26T09:08:09.803Z,8.5370
2023-04-26T09:09:12.125Z,8.8147
2023-04-26T09:10:14.454Z,8.8693
2023-04-26T09:11:16.725Z,8.7806
2023-04-26T09:12:19.011Z,8.7820
2023-04-26T09:13:21.321Z,8.9102
2023-04-26T09:14:23.655Z,9.0359
2023-04-26T09:15:25.979Z,9.0350
2023-04-26T09:16:26.942Z,9.1438
2023-04-26T09:17:26.860Z,9.1451
2023-04-26T09:18:26.692Z,9.3182
2023-04-26T09:19:29.037Z,9.5377
2023-04-26T09:20:28.893Z,9.7383
2023-04-26T09:21:31.198Z,9.7897
2023-04-26T09:22:33.496Z,9.5999
2023-04-26T09:23:35.815Z,9.6268
2023-04-26T09:24:38.040Z,9.4931
2023-04-26T09:25:40.269Z,9.5001
2023-04-26T09:26:42.547Z,9.3864
2023-04-26T09:27:45.018Z,9.5371
2023-04-26T09:28:45.273Z,9.7614
2023-04-26T09:29:45.201Z,10.0093
2023-04-26T09:30:45.208Z,9.4944
2023-04-26T09:31:47.767Z,9.3446
2023-04-26T09:32:45.369Z,9.6980
2023-04-26T09:33:45.285Z,9.9760
2023-04-26T09:34:47.557Z,10.2317
2023-04-26T09:35:49.820Z,10.4159
2023-04-26T09:36:52.039Z,10.6100
2023-04-26T09:37:58.750Z,10.1062
2023-04-26T09:38:55.946Z,9.9871
2023-04-26T09:39:58.196Z,10.0752
2023-04-26T09:40:58.245Z,10.2889
2023-04-26T09:41:58.608Z,10.3851
2023-04-26T09:43:00.842Z,10.7808
2023-04-26T09:44:03.079Z,10.6100
2023-04-26T09:45:05.297Z,10.3879
2023-04-26T09:46:07.507Z,10.2029
2023-04-26T09:47:09.863Z,10.4204
2023-04-26T09:48:09.865Z,10.4824
2023-04-26T09:49:10.620Z,10.4779
2023-04-26T09:50:12.839Z,10.3573
2023-04-26T09:51:15.018Z,10.1729
2023-04-26T09:52:17.189Z,10.4842
2023-04-26T09:53:19.394Z,10.5002
2023-04-26T09:54:21.550Z,10.4857
2023-04-26T09:55:34.125Z,10.1151
2023-04-26T09:56:25.578Z,10.2145
2023-04-26T09:57:27.821Z,10.3450
2023-04-26T09:58:30.048Z,10.3943
2023-04-26T09:59:32.300Z,10.5287
2023-04-26T10:00:34.563Z,10.6441
2023-04-26T10:01:36.878Z,10.6632
2023-04-26T10:02:36.765Z,10.6719
2023-04-26T10:03:36.786Z,10.5760
2023-04-26T10:04:37.707Z,10.5791
2023-04-26T10:05:37.647Z,10.2932
2023-04-26T10:06:39.956Z,10.2902
2023-04-26T10:07:42.131Z,10.4124
2023-04-26T10:08:44.357Z,10.3783
2023-04-26T10:09:44.258Z,10.6614
2023-04-26T10:10:46.466Z,10.8092
2023-04-26T10:11:48.724Z,10.4834
2023-04-26T10:12:51.034Z,9.8172
2023-04-26T10:13:53.225Z,10.0705
2023-04-26T10:14:55.423Z,10.4343
2023-04-26T10:15:57.695Z,10.4355
2023-04-26T10:17:00.114Z,10.5545
2023-04-26T10:18:00.068Z,10.2898
2023-04-26T10:18:59.990Z,10.2139
2023-04-26T10:20:02.300Z,10.0244
2023-04-26T10:21:02.139Z,9.9593
2023-04-26T10:22:04.365Z,10.1232
2023-04-26T10:23:06.595Z,10.4268
2023-04-26T10:24:08.871Z,10.2206
2023-04-26T10:25:11.137Z,10.2110
2023-04-26T10:26:14.309Z,10.4703
2023-04-26T10:27:14.035Z,10.8003
2023-04-26T10:28:16.308Z,11.0827
2023-04-26T10:29:18.510Z,11.1603
2023-04-26T10:30:20.783Z,11.1174
2023-04-26T10:31:22.995Z,11.2311
2023-04-26T10:32:25.274Z,10.9690
2023-04-26T10:33:27.626Z,11.1599
2023-04-26T10:34:27.388Z,11.2141
2023-04-26T10:35:29.607Z,11.5844
2023-04-26T10:36:31.873Z,11.8831
2023-04-26T10:37:34.079Z,12.0542
2023-04-26T10:38:36.282Z,12.1635
2023-04-26T10:39:38.469Z,12.4606
2023-04-26T10:40:40.694Z,12.7706
2023-04-26T10:41:42.949Z,12.7565
2023-04-26T10:42:45.140Z,12.1541
2023-04-26T10:43:47.345Z,12.3265
2023-04-26T10:44:49.488Z,12.3022
2023-04-26T10:45:51.877Z,12.5429
2023-04-26T10:46:52.058Z,12.5030
2023-04-26T10:47:54.279Z,12.4080
2023-04-26T10:48:56.440Z,12.1068
2023-04-26T10:49:58.589Z,11.8085
2023-04-26T10:51:00.819Z,11.8001
2023-04-26T10:52:03.015Z,11.9561
2023-04-26T10:53:05.257Z,12.2474
2023-04-26T10:54:07.415Z,12.4382
2023-04-26T10:55:09.611Z,12.2884
2023-04-26T10:56:11.822Z,12.4546
2023-04-26T10:57:14.028Z,11.9247
2023-04-26T10:58:16.247Z,12.1872
2023-04-26T10:59:33.261Z,12.5611
2023-04-26T11:00:17.763Z,12.7874
2023-04-26T11:01:19.949Z,13.0762
2023-04-26T11:02:22.200Z,12.9967
2023-04-26T11:03:24.463Z,12.5185
2023-04-26T11:04:24.951Z,12.8322
2023-04-26T11:05:25.500Z,13.0719
2023-04-26T11:06:25.376Z,13.0894
2023-04-26T11:07:27.590Z,12.9192
2023-04-26T11:08:29.791Z,12.9102
2023-04-26T11:09:29.658Z,12.4285
2023-04-26T11:10:31.861Z,12.2923
2023-04-26T11:11:34.056Z,12.2197
2023-04-26T11:12:36.251Z,11.5318
2023-04-26T11:13:38.447Z,11.5571
2023-04-26T11:14:40.618Z,11.6493
2023-04-26T11:15:42.864Z,11.3501
2023-04-26T11:16:45.234Z,11.4412
2023-04-26T11:17:45.035Z,11.3584
2023-04-26T11:18:47.280Z,11.2272
2023-04-26T11:19:49.548Z,11.4031
2023-04-26T11:20:51.809Z,11.6462
2023-04-26T11:21:55.219Z,11.3646
2023-04-26T11:22:56.271Z,11.7082
2023-04-26T11:23:58.476Z,12.2321
2023-04-26T11:25:00.858Z,12.8692
2023-04-26T11:26:00.633Z,13.1671
2023-04-26T11:27:02.843Z,12.8060
2023-04-26T11:28:03.594Z,12.8399
2023-04-26T11:29:05.863Z,12.8118
2023-04-26T11:30:05.625Z,12.9702
2023-04-26T11:31:05.686Z,12.9750
2023-04-26T11:32:05.557Z,13.3753
2023-04-26T11:33:07.825Z,13.4862
2023-04-26T11:34:07.691Z,12.8896
2023-04-26T11:35:09.906Z,13.3823
2023-04-26T11:36:12.129Z,13.7134
2023-04-26T11:37:14.357Z,14.0895
2023-04-26T11:38:16.531Z,14.2620
2023-04-26T11:39:18.740Z,14.6743
2023-04-26T11:40:20.928Z,14.6824
2023-04-26T11:41:23.115Z,14.6319
2023-04-26T11:42:23.025Z,14.3911
2023-04-26T11:43:23.795Z,13.8733
2023-04-26T11:44:25.918Z,13.9619
2023-04-26T11:45:28.086Z,13.6513
2023-04-26T11:46:27.942Z,13.5422
2023-04-26T11:47:27.688Z,12.9620
2023-04-26T11:48:28.150Z,13.0187
2023-04-26T11:49:30.273Z,13.0051
2023-04-26T11:50:32.456Z,12.6997
2023-04-26T11:51:34.716Z,12.7941
2023-04-26T11:52:36.926Z,12.8371
2023-04-26T11:53:39.145Z,12.9165
2023-04-26T11:54:41.308Z,12.6212
2023-04-26T11:55:43.536Z,12.6102
2023-04-26T11:56:45.773Z,12.8563
2023-04-26T11:57:47.965Z,12.9219
2023-04-26T11:58:50.328Z,13.5183
2023-04-26T11:59:51.090Z,13.6147
2023-04-26T12:00:53.283Z,13.6564
2023-04-26T12:01:55.522Z,13.9691
2023-04-26T12:02:57.881Z,14.1245
2023-04-26T12:03:58.312Z,14.2635
2023-04-26T12:04:58.937Z,14.4811
2023-04-26T12:05:59.463Z,14.0630
2023-04-26T12:07:01.658Z,14.1546
2023-04-26T12:08:03.760Z,13.9347
2023-04-26T12:09:06.069Z,13.8737
2023-04-26T12:10:05.819Z,13.8147
2023-04-26T12:11:07.998Z,14.0045
2023-04-26T12:12:10.188Z,13.7619
2023-04-26T12:13:12.375Z,13.1045
2023-04-26T12:14:14.557Z,13.1045
2023-04-26T12:15:15.601Z,12.7007
2023-04-26T12:16:25.498Z,12.9259
2023-04-26T12:17:17.432Z,12.9544
2023-04-26T12:18:17.514Z,13.2625
2023-04-26T12:19:17.795Z,13.3438
2023-04-26T12:20:20.004Z,13.2809
2023-04-26T12:21:22.243Z,13.3052
2023-04-26T12:22:24.419Z,13.4021
2023-04-26T12:23:26.632Z,13.3399
2023-04-26T12:24:26.351Z,13.0557
2023-04-26T12:25:28.562Z,13.1513
2023-04-26T12:26:30.796Z,13.2244
2023-04-26T12:27:30.541Z,13.2825
2023-04-26T12:28:32.751Z,13.5710
2023-04-26T12:29:35.019Z,13.5119
2023-04-26T12:30:37.181Z,13.7347
2023-04-26T12:31:39.422Z,13.5579
2023-04-26T12:32:39.317Z,13.8450
2023-04-26T12:33:41.795Z,13.8581
2023-04-26T12:34:41.573Z,13.9632
2023-04-26T12:35:43.846Z,14.0358
2023-04-26T12:36:43.646Z,13.8052
2023-04-26T12:37:43.453Z,13.9115
2023-04-26T12:38:45.590Z,13.8952
2023-04-26T12:39:47.761Z,13.9514
2023-04-26T12:40:49.971Z,14.1392
2023-04-26T12:41:52.172Z,13.9022
2023-04-26T12:42:54.330Z,14.0521
2023-04-26T12:43:56.510Z,13.9717
2023-04-26T12:44:58.763Z,13.8697
2023-04-26T12:46:01.013Z,14.2542